createdAt,value
2022-12-18T00:04:30.910Z,96.68
2022-12-18T00:09:39.381Z,96.79
2022-12-18T00:14:44.882Z,96.27
2022-12-18T00:19:46.354Z,96.45
2022-12-18T00:24:47.858Z,96.42
2022-12-18T00:29:49.442Z,96.86
2022-12-18T00:34:50.858Z,96.44
2022-12-18T00:39:52.349Z,96.02
2022-12-18T00:44:55.060Z,96.22
2022-12-18T00:49:56.567Z,96.37
2022-12-18T00:55:01.796Z,96.31
2022-12-18T01:00:07.850Z,95.79
2022-12-18T01:05:11.985Z,95.81
2022-12-18T01:10:14.597Z,96.08
2022-12-18T01:15:16.788Z,95.60
2022-12-18T01:20:18.296Z,95.40
2022-12-18T01:25:20.721Z,95.04
2022-12-18T01:30:22.210Z,95.33
2022-12-18T01:35:23.745Z,94.79
2022-12-18T01:40:25.253Z,95.34
2022-12-18T01:45:29.994Z,95.18
2022-12-18T01:50:42.694Z,94.54
2022-12-18T01:55:52.598Z,94.70
2022-12-18T02:00:55.612Z,94.24
2022-12-18T02:06:06.254Z,94.43
2022-12-18T02:11:20.949Z,94.73
2022-12-18T02:16:39.917Z,94.33
2022-12-18T02:21:54.209Z,93.83
2022-12-18T02:27:08.539Z,94.49
2022-12-18T02:32:15.519Z,94.37
2022-12-18T02:37:19.618Z,94.07
2022-12-18T02:42:23.834Z,93.92
2022-12-18T02:47:32.183Z,93.89
2022-12-18T02:52:42.583Z,94.10
2022-12-18T02:58:04.185Z,93.60
2022-12-18T03:03:25.127Z,93.55
2022-12-18T03:08:34.063Z,93.36
2022-12-18T03:14:05.889Z,93.45
2022-12-18T03:19:17.424Z,93.34
2022-12-18T03:24:21.158Z,93.66
2022-12-18T03:29:34.611Z,93.47
2022-12-18T03:34:40.465Z,93.46
2022-12-18T03:39:44.258Z,92.71
2022-12-18T03:45:02.989Z,93.33
2022-12-18T03:50:14.612Z,93.15
2022-12-18T03:55:22.177Z,92.97
2022-12-18T04:00:31.894Z,93.35
2022-12-18T04:05:43.986Z,92.98
2022-12-18T04:10:45.979Z,93.13
2022-12-18T04:15:47.696Z,92.84
2022-12-18T04:20:50.813Z,92.79
2022-12-18T04:25:53.212Z,93.04
2022-12-18T04:31:08.155Z,93.41
2022-12-18T04:36:10.640Z,92.80
2022-12-18T04:41:14.321Z,92.98
2022-12-18T04:46:17.061Z,92.93
2022-12-18T04:51:23.324Z,92.99
2022-12-18T04:56:27.676Z,92.67
2022-12-18T05:01:34.368Z,92.88
2022-12-18T05:06:36.442Z,92.83
2022-12-18T05:11:37.919Z,92.53
2022-12-18T05:16:39.395Z,93.41
2022-12-18T05:21:40.919Z,92.50
2022-12-18T05:26:42.420Z,93.27
2022-12-18T05:31:43.924Z,93.18
2022-12-18T05:36:46.233Z,93.21
2022-12-18T05:41:47.684Z,92.83
2022-12-18T05:46:49.233Z,93.16
2022-12-18T05:51:50.716Z,92.56
2022-12-18T05:56:52.142Z,93.01
2022-12-18T06:01:53.732Z,92.96
2022-12-18T06:06:55.420Z,92.99
2022-12-18T06:11:56.938Z,93.17
2022-12-18T06:16:58.581Z,92.70
2022-12-18T06:22:00.143Z,92.63
2022-12-18T06:27:01.605Z,92.70
2022-12-18T06:32:03.188Z,92.84
2022-12-18T06:37:04.874Z,93.29
2022-12-18T06:42:06.366Z,92.25
2022-12-18T06:47:07.815Z,92.45
2022-12-18T06:52:09.526Z,92.62
2022-12-18T06:57:10.947Z,92.32
2022-12-18T07:02:13.767Z,92.64
2022-12-18T07:07:15.425Z,93.00
2022-12-18T07:12:16.855Z,92.47
2022-12-18T07:17:18.323Z,92.45
2022-12-18T07:22:19.826Z,92.40
2022-12-18T07:27:21.285Z,92.65
2022-12-18T07:32:22.739Z,93.01
2022-12-18T07:37:24.229Z,92.11
2022-12-18T07:42:31.619Z,92.34
2022-12-18T07:47:36.712Z,92.37
2022-12-18T07:52:38.227Z,92.58
2022-12-18T07:57:50.498Z,92.32
2022-12-18T08:02:54.295Z,92.40
2022-12-18T08:07:56.938Z,92.08
2022-12-18T08:13:03.140Z,92.27
2022-12-18T08:18:11.368Z,92.11
2022-12-18T08:23:15.559Z,92.30
2022-12-18T08:28:17.047Z,92.10
2022-12-18T08:33:18.518Z,92.16
2022-12-18T08:38:20.007Z,92.30
2022-12-18T08:43:40.562Z,91.99
2022-12-18T08:48:42.608Z,92.12
2022-12-18T08:53:45.404Z,92.29
2022-12-18T08:58:47.038Z,92.29
2022-12-18T09:03:50.317Z,92.48
2022-12-18T09:08:51.775Z,92.24
2022-12-18T09:13:54.873Z,91.85
2022-12-18T09:19:00.649Z,92.27
2022-12-18T09:24:02.424Z,92.21
2022-12-18T09:29:04.354Z,92.24
2022-12-18T09:34:07.509Z,91.70
2022-12-18T09:39:09.214Z,91.71
2022-12-18T09:44:20.391Z,91.76
2022-12-18T09:49:27.519Z,91.58
2022-12-18T09:54:55.305Z,91.25
2022-12-18T10:00:04.612Z,91.31
2022-12-18T10:05:16.515Z,91.13
2022-12-18T10:10:33.134Z,90.93
2022-12-18T10:15:59.263Z,90.78
2022-12-18T10:21:20.010Z,90.52
2022-12-18T10:26:21.629Z,90.31
2022-12-18T10:31:25.428Z,90.13
2022-12-18T10:36:27.170Z,89.93
2022-12-18T10:41:29.407Z,89.82
2022-12-18T10:46:31.483Z,89.76
2022-12-18T10:51:38.607Z,89.29
2022-12-18T10:56:40.417Z,89.32
2022-12-18T11:01:47.113Z,89.44
2022-12-18T11:07:00.663Z,89.58
2022-12-18T11:12:16.488Z,89.07
2022-12-18T11:17:26.727Z,88.63
2022-12-18T11:22:31.690Z,88.13
2022-12-18T11:27:34.133Z,88.15
2022-12-18T11:32:43.156Z,87.73
2022-12-18T11:37:55.270Z,87.44
2022-12-18T11:43:22.926Z,87.00
2022-12-18T11:48:39.923Z,87.08
2022-12-18T11:53:42.065Z,86.88
2022-12-18T11:59:02.449Z,86.97
2022-12-18T12:04:26.310Z,86.55
2022-12-18T12:09:49.793Z,86.81
2022-12-18T12:14:58.019Z,86.70
2022-12-18T12:20:35.919Z,86.55
2022-12-18T12:25:58.436Z,86.35
2022-12-18T12:31:21.668Z,86.39
2022-12-18T12:36:41.858Z,86.38
2022-12-18T12:42:04.642Z,86.05
2022-12-18T12:47:18.777Z,85.91
2022-12-18T12:52:40.821Z,86.06
2022-12-18T12:57:51.630Z,85.93
2022-12-18T13:03:21.281Z,85.93
2022-12-18T13:08:26.328Z,86.09
2022-12-18T13:13:50.630Z,85.94
2022-12-18T13:18:55.310Z,85.69
2022-12-18T13:23:58.520Z,85.67
2022-12-18T13:29:03.000Z,85.50
2022-12-18T13:34:29.542Z,85.75
2022-12-18T13:39:36.057Z,85.32
2022-12-18T13:44:42.621Z,85.32
2022-12-18T13:49:45.172Z,85.29
2022-12-18T13:54:52.366Z,85.58
2022-12-18T13:59:54.073Z,85.50
2022-12-18T14:04:56.494Z,85.38
2022-12-18T14:10:18.641Z,85.46
2022-12-18T14:15:48.510Z,85.43
2022-12-18T14:20:53.212Z,85.41
2022-12-18T14:25:54.953Z,85.70
2022-12-18T14:30:57.417Z,85.29
2022-12-18T14:36:02.222Z,85.48
2022-12-18T14:41:12.890Z,85.41
2022-12-18T14:46:33.698Z,85.03
2022-12-18T14:51:36.792Z,84.91
2022-12-18T14:56:46.209Z,85.04
2022-12-18T15:01:49.534Z,84.62
2022-12-18T15:07:05.128Z,84.56
2022-12-18T15:12:20.657Z,84.46
2022-12-18T15:17:24.226Z,84.06
2022-12-18T15:22:33.872Z,83.96
2022-12-18T15:27:38.654Z,83.63
2022-12-18T15:32:43.530Z,83.58
2022-12-18T15:37:45.820Z,83.26
2022-12-18T15:43:07.260Z,83.24
2022-12-18T15:48:24.585Z,82.61
2022-12-18T15:53:31.121Z,82.50
2022-12-18T15:58:33.707Z,82.12
2022-12-18T16:03:35.375Z,81.77
2022-12-18T16:08:37.010Z,81.80
2022-12-18T16:13:39.130Z,81.36
2022-12-18T16:18:40.788Z,80.95
2022-12-18T16:23:42.707Z,81.31
2022-12-18T16:28:48.417Z,80.77
2022-12-18T16:33:50.501Z,81.07
2022-12-18T16:38:52.161Z,80.97
2022-12-18T16:43:55.139Z,81.01
2022-12-18T16:48:59.343Z,81.21
2022-12-18T16:54:05.100Z,80.92
2022-12-18T16:59:11.960Z,80.89
2022-12-18T17:04:13.747Z,80.56
2022-12-18T17:09:16.483Z,80.23
2022-12-18T17:14:20.277Z,80.05
2022-12-18T17:19:22.746Z,80.13
2022-12-18T17:24:24.351Z,79.79
2022-12-18T17:29:25.880Z,79.58
2022-12-18T17:34:28.475Z,79.45
2022-12-18T17:39:31.480Z,79.33
2022-12-18T17:44:34.275Z,78.94
2022-12-18T17:49:36.066Z,78.87
2022-12-18T17:54:39.767Z,78.34
2022-12-18T17:59:41.514Z,78.25
2022-12-18T18:04:42.964Z,78.24
2022-12-18T18:09:44.493Z,77.73
2022-12-18T18:14:45.958Z,77.63
2022-12-18T18:19:49.657Z,77.02
2022-12-18T18:24:51.798Z,76.91
2022-12-18T18:29:53.341Z,76.74
2022-12-18T18:34:54.859Z,76.39
2022-12-18T18:39:56.874Z,76.31
2022-12-18T18:44:58.398Z,76.21
2022-12-18T18:50:00.080Z,76.08
2022-12-18T18:55:13.425Z,75.88
2022-12-18T19:00:23.474Z,75.98
2022-12-18T19:05:28.120Z,75.78
2022-12-18T19:10:31.099Z,75.94
2022-12-18T19:15:34.220Z,75.82
2022-12-18T19:20:35.936Z,75.54
2022-12-18T19:25:42.540Z,75.44
2022-12-18T19:30:44.731Z,75.32
2022-12-18T19:35:46.421Z,75.09
2022-12-18T19:40:48.526Z,74.98
2022-12-18T19:45:55.118Z,74.78
2022-12-18T19:50:56.816Z,74.74
2022-12-18T19:55:58.446Z,74.82
2022-12-18T20:00:59.970Z,74.76
2022-12-18T20:06:18.809Z,74.66
2022-12-18T20:11:20.321Z,74.37
2022-12-18T20:16:23.346Z,74.41
2022-12-18T20:21:25.263Z,74.01
2022-12-18T20:26:26.956Z,74.14
2022-12-18T20:31:28.460Z,74.40
2022-12-18T20:36:30.643Z,74.57
2022-12-18T20:41:37.907Z,74.40
2022-12-18T20:46:40.413Z,74.58
2022-12-18T20:51:41.940Z,74.50
2022-12-18T20:56:43.441Z,74.49
2022-12-18T21:01:48.365Z,74.71
2022-12-18T21:06:55.738Z,74.40
2022-12-18T21:12:22.353Z,74.82
2022-12-18T21:17:23.992Z,74.82
2022-12-18T21:22:28.227Z,74.84
2022-12-18T21:27:29.698Z,74.86
2022-12-18T21:32:33.441Z,74.81
2022-12-18T21:37:35.579Z,74.49
2022-12-18T21:42:55.531Z,74.39
2022-12-18T21:47:57.468Z,74.74
2022-12-18T21:52:58.983Z,74.84
2022-12-18T21:58:00.450Z,74.88
2022-12-18T22:03:17.219Z,74.46
2022-12-18T22:08:19.621Z,74.65
2022-12-18T22:13:21.126Z,74.76
2022-12-18T22:18:22.793Z,74.94
2022-12-18T22:23:24.315Z,74.79
2022-12-18T22:28:44.402Z,74.83
2022-12-18T22:33:46.159Z,75.23
2022-12-18T22:38:48.479Z,75.48
2022-12-18T22:43:50.079Z,75.47
2022-12-18T22:48:51.575Z,75.41
2022-12-18T22:53:53.129Z,75.93
2022-12-18T22:58:56.499Z,76.03
2022-12-18T23:04:00.510Z,76.22
2022-12-18T23:09:01.956Z,76.31
2022-12-18T23:14:03.510Z,76.46
2022-12-18T23:19:05.738Z,76.92
2022-12-18T23:24:07.563Z,77.16
2022-12-18T23:29:09.107Z,77.15
2022-12-18T23:34:12.739Z,77.35
2022-12-18T23:39:21.602Z,77.68
2022-12-18T23:44:31.706Z,77.93
2022-12-18T23:49:33.152Z,77.86
2022-12-18T23:54:35.102Z,78.12
2022-12-18T23:59:36.602Z,78.36
